createdAt,value
2023-01-10T00:00:00.357Z,968.35
2023-01-10T00:01:00.413Z,968.39
2023-01-10T00:02:00.456Z,968.35
2023-01-10T00:03:00.523Z,968.33
2023-01-10T00:04:00.570Z,968.38
2023-01-10T00:05:00.673Z,968.38
2023-01-10T00:06:00.620Z,968.42
2023-01-10T00:07:00.682Z,968.39
2023-01-10T00:08:00.704Z,968.42
2023-01-10T00:09:00.764Z,968.41
2023-01-10T00:10:00.786Z,968.43
2023-01-10T00:11:00.825Z,968.41
2023-01-10T00:12:00.870Z,968.42
2023-01-10T00:13:00.915Z,968.44
2023-01-10T00:14:00.981Z,968.41
2023-01-10T00:15:01.013Z,968.42
2023-01-10T00:16:01.130Z,968.49
2023-01-10T00:17:01.119Z,968.43
2023-01-10T00:18:01.135Z,968.45
2023-01-10T00:19:01.167Z,968.50
2023-01-10T00:20:01.220Z,968.47
2023-01-10T00:21:01.275Z,968.50
2023-01-10T00:22:01.887Z,968.55
2023-01-10T00:23:01.347Z,968.54
2023-01-10T00:24:01.396Z,968.53
2023-01-10T00:25:01.430Z,968.56
2023-01-10T00:26:01.495Z,968.55
2023-01-10T00:27:01.531Z,968.55
2023-01-10T00:28:01.545Z,968.58
2023-01-10T00:29:01.587Z,968.56
2023-01-10T00:30:01.633Z,968.66
2023-01-10T00:31:01.850Z,968.70
2023-01-10T00:32:01.727Z,968.73
2023-01-10T00:33:01.799Z,968.69
2023-01-10T00:34:01.804Z,968.69
2023-01-10T00:35:01.845Z,968.76
2023-01-10T00:36:01.896Z,968.78
2023-01-10T00:37:01.942Z,968.72
2023-01-10T00:38:01.999Z,968.73
2023-01-10T00:39:02.038Z,968.78
2023-01-10T00:40:02.066Z,968.82
2023-01-10T00:41:02.897Z,968.84
2023-01-10T00:42:02.148Z,968.81
2023-01-10T00:43:02.187Z,968.84
2023-01-10T00:44:02.246Z,968.89
2023-01-10T00:45:02.912Z,968.90
2023-01-10T00:46:02.339Z,968.93
2023-01-10T00:47:02.382Z,968.91
2023-01-10T00:48:02.407Z,968.94
2023-01-10T00:49:02.492Z,968.96
2023-01-10T00:50:02.486Z,969.02
2023-01-10T00:51:02.530Z,969.02
2023-01-10T00:52:02.572Z,969.05
2023-01-10T00:53:02.610Z,969.10
2023-01-10T00:54:02.678Z,969.08
2023-01-10T00:55:02.730Z,969.13
2023-01-10T00:56:02.740Z,969.15
2023-01-10T00:57:02.774Z,969.22
2023-01-10T00:58:02.824Z,969.27
2023-01-10T00:59:03.392Z,969.33
2023-01-10T01:00:02.941Z,969.31
2023-01-10T01:01:02.981Z,969.37
2023-01-10T01:02:03.055Z,969.35
2023-01-10T01:03:03.071Z,969.40
2023-01-10T01:04:03.072Z,969.37
2023-01-10T01:05:03.148Z,969.39
2023-01-10T01:06:03.160Z,969.41
2023-01-10T01:07:03.222Z,969.43
2023-01-10T01:08:03.253Z,969.45
2023-01-10T01:09:03.294Z,969.50
2023-01-10T01:10:03.358Z,969.60
2023-01-10T01:11:03.402Z,969.58
2023-01-10T01:12:03.468Z,969.65
2023-01-10T01:13:03.446Z,969.66
2023-01-10T01:14:03.492Z,969.68
2023-01-10T01:15:03.549Z,969.74
2023-01-10T01:16:04.477Z,969.77
2023-01-10T01:17:03.655Z,969.87
2023-01-10T01:18:03.668Z,969.85
2023-01-10T01:19:03.710Z,969.85
2023-01-10T01:20:03.747Z,969.92
2023-01-10T01:21:03.792Z,969.98
2023-01-10T01:22:03.863Z,969.93
2023-01-10T01:23:03.871Z,969.97
2023-01-10T01:24:03.912Z,969.96
2023-01-10T01:25:03.990Z,970.05
2023-01-10T01:26:04.008Z,970.00
2023-01-10T01:27:04.055Z,970.11
2023-01-10T01:28:04.083Z,970.11
2023-01-10T01:29:04.136Z,970.22
2023-01-10T01:30:04.195Z,970.06
2023-01-10T01:31:04.242Z,970.23
2023-01-10T01:32:04.256Z,970.29
2023-01-10T01:33:04.312Z,970.32
2023-01-10T01:34:04.340Z,970.34
2023-01-10T01:35:04.417Z,970.33
2023-01-10T01:36:04.437Z,970.38
2023-01-10T01:37:04.463Z,970.50
2023-01-10T01:38:04.513Z,970.52
2023-01-10T01:39:04.555Z,970.47
2023-01-10T01:40:04.610Z,970.58
2023-01-10T01:41:04.660Z,970.51
2023-01-10T01:42:04.682Z,970.57
2023-01-10T01:43:04.748Z,970.59
2023-01-10T01:44:04.764Z,970.66
2023-01-10T01:45:04.806Z,970.61
2023-01-10T01:46:04.871Z,970.60
2023-01-10T01:47:04.925Z,970.66
2023-01-10T01:48:04.964Z,970.69
2023-01-10T01:49:05.001Z,970.70
2023-01-10T01:50:05.009Z,970.72
2023-01-10T01:51:05.072Z,970.76
2023-01-10T01:52:05.100Z,970.75
2023-01-10T01:53:05.184Z,970.83
2023-01-10T01:54:05.210Z,970.83
2023-01-10T01:55:05.265Z,970.82
2023-01-10T01:56:05.298Z,970.82
2023-01-10T01:57:05.314Z,970.83
2023-01-10T01:58:05.350Z,970.86
2023-01-10T01:59:05.399Z,970.88
2023-01-10T02:00:05.438Z,970.81
2023-01-10T02:01:05.596Z,970.89
2023-01-10T02:02:06.439Z,970.85
2023-01-10T02:03:05.622Z,970.91
2023-01-10T02:04:05.664Z,970.90
2023-01-10T02:05:05.648Z,970.93
2023-01-10T02:06:05.712Z,970.97
2023-01-10T02:07:05.744Z,970.92
2023-01-10T02:08:06.409Z,970.96
2023-01-10T02:09:05.846Z,970.95
2023-01-10T02:10:05.865Z,970.98
2023-01-10T02:11:05.935Z,970.91
2023-01-10T02:12:05.947Z,970.95
2023-01-10T02:13:05.983Z,970.98
2023-01-10T02:14:06.045Z,971.04
2023-01-10T02:15:06.077Z,971.06
2023-01-10T02:16:06.203Z,971.06
2023-01-10T02:17:06.147Z,971.04
2023-01-10T02:18:06.196Z,971.09
2023-01-10T02:19:06.277Z,971.04
2023-01-10T02:20:06.288Z,971.08
2023-01-10T02:21:06.322Z,971.11
2023-01-10T02:22:06.903Z,971.15
2023-01-10T02:23:06.407Z,971.06
2023-01-10T02:24:06.477Z,971.17
2023-01-10T02:25:06.499Z,971.16
2023-01-10T02:26:06.525Z,971.17
2023-01-10T02:27:06.578Z,971.17
2023-01-10T02:28:06.613Z,971.17
2023-01-10T02:29:06.673Z,971.14
2023-01-10T02:30:06.703Z,971.14
2023-01-10T02:31:06.820Z,971.20
2023-01-10T02:32:06.786Z,971.21
2023-01-10T02:33:06.867Z,971.17
2023-01-10T02:34:06.875Z,971.13
2023-01-10T02:35:06.920Z,971.14
2023-01-10T02:36:06.960Z,971.16
2023-01-10T02:37:07.018Z,971.12
2023-01-10T02:38:07.033Z,971.16
2023-01-10T02:39:07.080Z,971.22
2023-01-10T02:40:07.121Z,971.17
2023-01-10T02:41:07.164Z,971.21
2023-01-10T02:42:07.227Z,971.24
2023-01-10T02:43:07.250Z,971.25
2023-01-10T02:44:07.301Z,971.23
2023-01-10T02:45:07.909Z,971.27
2023-01-10T02:46:07.442Z,971.32
2023-01-10T02:47:07.440Z,971.38
2023-01-10T02:48:07.461Z,971.34
2023-01-10T02:49:07.513Z,971.40
2023-01-10T02:50:07.548Z,971.38
2023-01-10T02:51:07.589Z,971.44
2023-01-10T02:52:07.650Z,971.44
2023-01-10T02:53:08.407Z,971.44
2023-01-10T02:54:07.711Z,971.46
2023-01-10T02:55:07.750Z,971.44
2023-01-10T02:56:07.790Z,971.41
2023-01-10T02:57:07.858Z,971.49
2023-01-10T02:58:07.891Z,971.46
2023-01-10T02:59:07.923Z,971.49
2023-01-10T03:00:07.990Z,971.55
2023-01-10T03:01:08.036Z,971.51
2023-01-10T03:02:08.985Z,971.63
2023-01-10T03:03:08.089Z,971.56
2023-01-10T03:04:16.459Z,971.63
2023-01-10T03:05:08.213Z,971.63
2023-01-10T03:06:08.217Z,971.70
2023-01-10T03:07:08.257Z,971.79
2023-01-10T03:08:08.294Z,971.77
2023-01-10T03:09:08.345Z,971.79
2023-01-10T03:10:08.415Z,971.73
2023-01-10T03:11:08.464Z,971.84
2023-01-10T03:12:08.463Z,971.89
2023-01-10T03:13:08.503Z,971.89
2023-01-10T03:14:08.547Z,971.95
2023-01-10T03:15:08.611Z,971.91
2023-01-10T03:16:08.710Z,971.90
2023-01-10T03:17:08.669Z,971.95
2023-01-10T03:18:08.725Z,971.89
2023-01-10T03:19:08.752Z,971.95
2023-01-10T03:20:08.807Z,971.99
2023-01-10T03:21:08.876Z,972.06
2023-01-10T03:22:09.456Z,972.08
2023-01-10T03:23:08.931Z,972.06
2023-01-10T03:24:09.947Z,971.98
2023-01-10T03:25:09.004Z,972.00
2023-01-10T03:26:09.079Z,971.99
2023-01-10T03:27:09.124Z,971.99
2023-01-10T03:28:09.142Z,971.99
2023-01-10T03:29:09.203Z,972.03
2023-01-10T03:30:09.233Z,972.14
2023-01-10T03:31:09.290Z,972.24
2023-01-10T03:32:09.301Z,972.24
2023-01-10T03:33:09.954Z,972.29
2023-01-10T03:34:09.418Z,972.26
2023-01-10T03:35:09.423Z,972.34
2023-01-10T03:36:09.466Z,972.31
2023-01-10T03:37:09.517Z,972.32
2023-01-10T03:38:09.580Z,972.32
2023-01-10T03:39:09.592Z,972.33
2023-01-10T03:40:09.633Z,972.38
2023-01-10T03:41:09.676Z,972.37
2023-01-10T03:42:09.730Z,972.41
2023-01-10T03:43:09.797Z,972.42
2023-01-10T03:44:09.801Z,972.44
2023-01-10T03:45:09.853Z,972.46
2023-01-10T03:46:09.937Z,972.48
2023-01-10T03:47:10.460Z,972.50
2023-01-10T03:48:10.008Z,972.58
2023-01-10T03:49:10.023Z,972.56
2023-01-10T03:50:10.953Z,972.58
2023-01-10T03:51:10.115Z,972.57
2023-01-10T03:52:10.138Z,972.61
2023-01-10T03:53:10.185Z,972.63
2023-01-10T03:54:10.224Z,972.63
2023-01-10T03:55:10.298Z,972.67
2023-01-10T03:56:10.313Z,972.74
2023-01-10T03:57:10.360Z,972.74
2023-01-10T03:58:10.412Z,972.76
2023-01-10T03:59:10.431Z,972.79
2023-01-10T04:00:10.511Z,972.82
2023-01-10T04:01:10.649Z,972.86
2023-01-10T04:02:10.567Z,972.82
2023-01-10T04:03:10.607Z,972.86
2023-01-10T04:04:10.713Z,972.78
2023-01-10T04:05:10.711Z,972.82
2023-01-10T04:06:10.730Z,972.81
2023-01-10T04:07:10.766Z,972.84
2023-01-10T04:08:10.859Z,972.90
2023-01-10T04:09:10.870Z,972.82
2023-01-10T04:10:10.897Z,972.81
2023-01-10T04:11:10.936Z,972.88
2023-01-10T04:12:10.985Z,972.88
2023-01-10T04:13:11.047Z,972.95
2023-01-10T04:14:11.083Z,972.97
2023-01-10T04:15:11.130Z,972.99
2023-01-10T04:16:11.154Z,972.95
2023-01-10T04:17:11.189Z,973.00
2023-01-10T04:18:11.242Z,972.99
2023-01-10T04:19:11.268Z,973.01
2023-01-10T04:20:11.349Z,973.05
2023-01-10T04:21:11.351Z,973.08
2023-01-10T04:22:11.396Z,973.13
2023-01-10T04:23:11.444Z,973.16
2023-01-10T04:24:12.471Z,973.15
2023-01-10T04:25:11.555Z,973.17
2023-01-10T04:26:12.457Z,973.19
2023-01-10T04:27:11.606Z,973.16
2023-01-10T04:28:11.647Z,973.15
2023-01-10T04:29:11.745Z,973.20
2023-01-10T04:30:11.739Z,973.21
2023-01-10T04:31:11.781Z,973.28
2023-01-10T04:32:11.847Z,973.22
2023-01-10T04:33:11.862Z,973.34
2023-01-10T04:34:11.928Z,973.34
2023-01-10T04:35:11.946Z,973.34
2023-01-10T04:36:11.990Z,973.40
2023-01-10T04:37:12.021Z,973.35
2023-01-10T04:38:12.071Z,973.43
2023-01-10T04:39:12.153Z,973.42
2023-01-10T04:40:12.988Z,973.41
2023-01-10T04:41:12.198Z,973.42
2023-01-10T04:42:12.956Z,973.56
2023-01-10T04:43:12.280Z,973.53
2023-01-10T04:44:12.338Z,973.55
2023-01-10T04:45:12.369Z,973.64
2023-01-10T04:46:12.952Z,973.57
2023-01-10T04:47:13.174Z,973.60
2023-01-10T04:48:13.493Z,973.65
2023-01-10T04:49:12.539Z,973.62
2023-01-10T04:50:12.565Z,973.66
2023-01-10T04:51:12.615Z,973.65
2023-01-10T04:52:12.676Z,973.74
2023-01-10T04:53:12.697Z,973.70
2023-01-10T04:54:12.765Z,973.74
2023-01-10T04:55:12.778Z,973.69
2023-01-10T04:56:12.824Z,973.75
2023-01-10T04:57:12.899Z,973.77
2023-01-10T04:58:12.931Z,973.73
2023-01-10T04:59:12.939Z,973.76
2023-01-10T05:00:12.990Z,973.81
2023-01-10T05:01:13.078Z,973.83
2023-01-10T05:02:13.156Z,973.85
2023-01-10T05:03:13.196Z,973.86
2023-01-10T05:04:13.201Z,973.87
2023-01-10T05:05:13.207Z,973.88
2023-01-10T05:06:13.239Z,973.94
2023-01-10T05:07:13.284Z,974.01
2023-01-10T05:08:13.962Z,973.99
2023-01-10T05:09:13.407Z,973.99
2023-01-10T05:10:13.401Z,974.08
2023-01-10T05:11:13.452Z,973.98
2023-01-10T05:12:13.490Z,974.11
2023-01-10T05:13:13.525Z,974.21
2023-01-10T05:14:13.617Z,974.14
2023-01-10T05:15:13.614Z,974.22
2023-01-10T05:16:13.713Z,974.17
2023-01-10T05:17:13.720Z,974.15
2023-01-10T05:18:13.742Z,974.20
2023-01-10T05:19:13.783Z,974.26
2023-01-10T05:20:13.831Z,974.30
2023-01-10T05:21:13.869Z,974.25
2023-01-10T05:22:13.936Z,974.33
2023-01-10T05:23:13.945Z,974.36
2023-01-10T05:24:14.011Z,974.31
2023-01-10T05:25:14.025Z,974.38
2023-01-10T05:26:14.115Z,974.40
2023-01-10T05:27:14.120Z,974.40
2023-01-10T05:28:14.157Z,974.41
2023-01-10T05:29:14.193Z,974.36
2023-01-10T05:30:14.244Z,974.41
2023-01-10T05:31:14.307Z,974.44
2023-01-10T05:32:14.323Z,974.44
2023-01-10T05:33:14.370Z,974.46
2023-01-10T05:34:14.419Z,974.56
2023-01-10T05:35:14.448Z,974.56
2023-01-10T05:36:14.513Z,974.54
2023-01-10T05:37:14.534Z,974.59
2023-01-10T05:38:14.575Z,974.60
2023-01-10T05:39:14.621Z,974.67
2023-01-10T05:40:14.657Z,974.64
2023-01-10T05:41:14.736Z,974.77
2023-01-10T05:42:14.752Z,974.73
2023-01-10T05:43:14.783Z,974.76
2023-01-10T05:44:15.003Z,974.85
2023-01-10T05:45:14.873Z,974.84
2023-01-10T05:46:14.978Z,974.91
2023-01-10T05:47:14.947Z,974.87
2023-01-10T05:48:15.027Z,974.89
2023-01-10T05:49:15.037Z,974.85
2023-01-10T05:50:15.085Z,974.88
2023-01-10T05:51:15.133Z,974.90
2023-01-10T05:52:15.163Z,974.97
2023-01-10T05:53:15.219Z,975.04
2023-01-10T05:54:15.243Z,975.07
2023-01-10T05:55:15.289Z,975.05
2023-01-10T05:56:15.342Z,975.05
2023-01-10T05:57:15.392Z,975.03
2023-01-10T05:58:15.409Z,975.07
2023-01-10T05:59:27.482Z,975.14
2023-01-10T06:00:15.516Z,975.14
2023-01-10T06:01:15.588Z,975.16
2023-01-10T06:02:15.694Z,975.16
2023-01-10T06:03:15.711Z,975.22
2023-01-10T06:04:15.669Z,975.19
2023-01-10T06:05:15.702Z,975.23
2023-01-10T06:06:15.766Z,975.21
2023-01-10T06:07:15.786Z,975.21
2023-01-10T06:08:16.486Z,975.19
2023-01-10T06:09:15.879Z,975.25
2023-01-10T06:10:15.955Z,975.34
2023-01-10T06:11:16.466Z,975.34
2023-01-10T06:12:15.993Z,975.37
2023-01-10T06:13:16.047Z,975.42
2023-01-10T06:14:16.105Z,975.43
2023-01-10T06:15:16.154Z,975.47
2023-01-10T06:16:16.187Z,975.43
2023-01-10T06:17:16.960Z,975.40
2023-01-10T06:18:16.256Z,975.40
2023-01-10T06:19:16.288Z,975.46
2023-01-10T06:20:16.361Z,975.37
2023-01-10T06:21:16.968Z,975.40
2023-01-10T06:22:16.445Z,975.41
2023-01-10T06:23:16.487Z,975.45
2023-01-10T06:24:16.512Z,975.46
2023-01-10T06:25:16.544Z,975.42
2023-01-10T06:26:17.154Z,975.45
2023-01-10T06:27:16.633Z,975.39
2023-01-10T06:28:16.689Z,975.46
2023-01-10T06:29:16.723Z,975.48
2023-01-10T06:30:16.757Z,975.40
2023-01-10T06:31:17.494Z,975.54
2023-01-10T06:32:16.834Z,975.51
2023-01-10T06:33:16.900Z,975.54
2023-01-10T06:34:16.916Z,975.60
2023-01-10T06:35:16.977Z,975.64
2023-01-10T06:36:17.010Z,975.62
2023-01-10T06:37:20.177Z,975.63
2023-01-10T06:38:17.121Z,975.67
2023-01-10T06:39:17.132Z,975.64
2023-01-10T06:40:17.172Z,975.68
2023-01-10T06:41:17.999Z,975.71
2023-01-10T06:42:17.254Z,975.81
2023-01-10T06:43:17.335Z,975.77
2023-01-10T06:44:17.356Z,975.86
2023-01-10T06:45:17.377Z,975.86
2023-01-10T06:46:17.497Z,975.86
2023-01-10T06:47:17.475Z,975.92
2023-01-10T06:48:17.531Z,975.92
2023-01-10T06:49:17.548Z,976.02
2023-01-10T06:50:17.592Z,975.99
2023-01-10T06:51:19.954Z,975.99
2023-01-10T06:52:17.681Z,975.92
2023-01-10T06:53:17.731Z,976.01
2023-01-10T06:54:17.751Z,975.98
2023-01-10T06:55:17.809Z,976.01
2023-01-10T06:56:17.833Z,976.05
2023-01-10T06:57:17.905Z,976.06
2023-01-10T06:58:17.926Z,976.09
2023-01-10T06:59:17.973Z,976.13
2023-01-10T07:00:18.006Z,976.14
2023-01-10T07:01:18.206Z,976.19
2023-01-10T07:02:18.144Z,976.20
2023-01-10T07:03:18.129Z,976.25
2023-01-10T07:04:18.202Z,976.26
2023-01-10T07:05:18.264Z,976.36
2023-01-10T07:06:18.252Z,976.38
2023-01-10T07:07:18.298Z,976.41
2023-01-10T07:08:18.339Z,976.43
2023-01-10T07:09:18.448Z,976.45
2023-01-10T07:10:18.969Z,976.48
2023-01-10T07:11:18.471Z,976.54
2023-01-10T07:12:18.527Z,976.56
2023-01-10T07:13:18.556Z,976.56
2023-01-10T07:14:18.626Z,976.58
2023-01-10T07:15:18.651Z,976.58
2023-01-10T07:16:18.735Z,976.63
2023-01-10T07:17:18.768Z,976.69
2023-01-10T07:18:18.760Z,976.71
2023-01-10T07:19:18.827Z,976.71
2023-01-10T07:20:19.464Z,976.71
2023-01-10T07:21:18.882Z,976.79
2023-01-10T07:22:18.959Z,976.80
2023-01-10T07:23:18.976Z,976.78
2023-01-10T07:24:19.016Z,976.84
2023-01-10T07:25:19.970Z,976.85
2023-01-10T07:26:19.107Z,976.85
2023-01-10T07:27:19.152Z,976.86
2023-01-10T07:28:19.184Z,976.93
2023-01-10T07:29:19.990Z,976.91
2023-01-10T07:30:19.972Z,976.93
2023-01-10T07:31:19.374Z,976.89
2023-01-10T07:32:19.342Z,976.91
2023-01-10T07:33:19.395Z,976.86
2023-01-10T07:34:19.441Z,976.92
2023-01-10T07:35:19.513Z,976.96
2023-01-10T07:36:19.532Z,976.94
2023-01-10T07:37:19.583Z,977.02
2023-01-10T07:38:19.615Z,977.02
2023-01-10T07:39:19.643Z,977.02
2023-01-10T07:40:19.692Z,977.09
2023-01-10T07:41:19.746Z,977.10
2023-01-10T07:42:19.852Z,977.17
2023-01-10T07:43:19.816Z,977.11
2023-01-10T07:44:19.872Z,977.14
2023-01-10T07:45:19.890Z,977.19
2023-01-10T07:46:19.975Z,977.20
2023-01-10T07:47:27.557Z,977.25
2023-01-10T07:48:28.562Z,977.23
2023-01-10T07:49:20.063Z,977.27
2023-01-10T07:50:20.155Z,977.29
2023-01-10T07:51:20.167Z,977.32
2023-01-10T07:52:20.203Z,977.37
2023-01-10T07:53:20.236Z,977.39
2023-01-10T07:54:20.297Z,977.44
2023-01-10T07:55:20.332Z,977.50
2023-01-10T07:56:20.357Z,977.49
2023-01-10T07:57:20.400Z,977.50
2023-01-10T07:58:21.062Z,977.45
2023-01-10T07:59:20.475Z,977.48
2023-01-10T08:00:20.534Z,977.45
2023-01-10T08:01:20.647Z,977.51
2023-01-10T08:02:20.683Z,977.53
2023-01-10T08:03:20.796Z,977.53
2023-01-10T08:04:20.696Z,977.56
2023-01-10T08:05:21.563Z,977.49
2023-01-10T08:06:20.765Z,977.55
2023-01-10T08:07:20.817Z,977.53
2023-01-10T08:08:20.887Z,977.55
2023-01-10T08:09:20.898Z,977.53
2023-01-10T08:10:20.944Z,977.56
2023-01-10T08:11:21.022Z,977.54
2023-01-10T08:12:21.058Z,977.60
2023-01-10T08:13:21.101Z,977.59
2023-01-10T08:14:22.092Z,977.59
2023-01-10T08:15:21.153Z,977.62
2023-01-10T08:16:21.259Z,977.62
2023-01-10T08:17:21.236Z,977.63
2023-01-10T08:18:21.309Z,977.70
2023-01-10T08:19:21.355Z,977.68
2023-01-10T08:20:21.363Z,977.76
2023-01-10T08:21:21.411Z,977.72
2023-01-10T08:22:21.449Z,977.77
2023-01-10T08:23:21.504Z,977.74
2023-01-10T08:24:21.563Z,977.79
2023-01-10T08:25:21.608Z,977.79
2023-01-10T08:26:21.639Z,977.77
2023-01-10T08:27:21.667Z,977.78
2023-01-10T08:28:21.708Z,977.78
2023-01-10T08:29:21.757Z,977.83
2023-01-10T08:30:21.812Z,977.86
2023-01-10T08:31:21.880Z,977.84
2023-01-10T08:32:22.565Z,977.86
2023-01-10T08:33:21.925Z,977.92
2023-01-10T08:34:21.959Z,977.93
2023-01-10T08:35:22.053Z,977.96
2023-01-10T08:36:22.075Z,977.95
2023-01-10T08:37:22.106Z,977.96
2023-01-10T08:38:22.141Z,977.94
2023-01-10T08:39:23.065Z,978.02
2023-01-10T08:40:22.367Z,978.00
2023-01-10T08:41:22.258Z,978.03
2023-01-10T08:42:22.299Z,978.03
2023-01-10T08:43:22.342Z,978.05
2023-01-10T08:44:22.414Z,978.03
2023-01-10T08:45:22.435Z,978.06
2023-01-10T08:46:22.501Z,978.13
2023-01-10T08:47:22.521Z,978.15
2023-01-10T08:48:22.559Z,978.21
2023-01-10T08:49:22.633Z,978.20
2023-01-10T08:50:22.765Z,978.21
2023-01-10T08:51:22.694Z,978.25
2023-01-10T08:52:22.732Z,978.23
2023-01-10T08:53:22.772Z,978.23
2023-01-10T08:54:22.844Z,978.17
2023-01-10T08:55:22.862Z,978.22
2023-01-10T08:56:22.897Z,978.24
2023-01-10T08:57:22.944Z,978.19
2023-01-10T08:58:23.017Z,978.19
2023-01-10T08:59:23.059Z,978.24
2023-01-10T09:00:23.164Z,978.26
2023-01-10T09:01:23.241Z,978.25
2023-01-10T09:02:23.153Z,978.24
2023-01-10T09:03:23.196Z,978.30
2023-01-10T09:04:23.291Z,978.29
2023-01-10T09:05:27.387Z,978.32
2023-01-10T09:06:23.324Z,978.38
2023-01-10T09:07:23.427Z,978.35
2023-01-10T09:08:23.414Z,978.31
2023-01-10T09:09:23.451Z,978.35
2023-01-10T09:10:23.509Z,978.32
2023-01-10T09:11:23.536Z,978.37
2023-01-10T09:12:23.616Z,978.36
2023-01-10T09:13:23.640Z,978.40
2023-01-10T09:14:23.665Z,978.44
2023-01-10T09:15:23.714Z,978.38
2023-01-10T09:16:23.816Z,978.36
2023-01-10T09:17:23.828Z,978.35
2023-01-10T09:18:23.872Z,978.28
2023-01-10T09:19:23.888Z,978.34
2023-01-10T09:20:23.937Z,978.30
2023-01-10T09:21:23.964Z,978.35
2023-01-10T09:22:24.010Z,978.36
2023-01-10T09:23:24.099Z,978.34
2023-01-10T09:24:24.098Z,978.30
2023-01-10T09:25:24.150Z,978.37
2023-01-10T09:26:24.180Z,978.36
2023-01-10T09:27:24.231Z,978.40
2023-01-10T09:28:24.301Z,978.48
2023-01-10T09:29:24.342Z,978.50
2023-01-10T09:30:24.349Z,978.53
2023-01-10T09:31:24.471Z,978.52
2023-01-10T09:32:24.451Z,978.52
2023-01-10T09:33:25.311Z,978.58
2023-01-10T09:34:24.521Z,978.55
2023-01-10T09:35:24.605Z,978.57
2023-01-10T09:36:24.630Z,978.57
2023-01-10T09:37:24.646Z,978.59
2023-01-10T09:38:24.716Z,978.63
2023-01-10T09:39:24.773Z,978.68
2023-01-10T09:40:25.572Z,978.75
2023-01-10T09:41:24.825Z,978.75
2023-01-10T09:42:24.877Z,978.79
2023-01-10T09:43:24.909Z,978.80
2023-01-10T09:44:25.005Z,978.81
2023-01-10T09:45:25.099Z,978.85
2023-01-10T09:46:25.055Z,978.80
2023-01-10T09:47:25.098Z,978.85
2023-01-10T09:48:25.120Z,978.88
2023-01-10T09:49:25.201Z,978.83
2023-01-10T09:50:25.228Z,978.85
2023-01-10T09:51:25.259Z,978.85
2023-01-10T09:52:25.304Z,978.79
2023-01-10T09:53:25.411Z,978.80
2023-01-10T09:54:25.529Z,978.83
2023-01-10T09:55:25.564Z,978.79
2023-01-10T09:56:25.532Z,978.83
2023-01-10T09:57:25.604Z,978.83
2023-01-10T09:58:25.604Z,978.78
2023-01-10T09:59:25.645Z,978.81
2023-01-10T10:00:25.811Z,978.81
2023-01-10T10:01:25.942Z,978.84
2023-01-10T10:02:25.792Z,978.85
2023-01-10T10:03:25.917Z,978.76
2023-01-10T10:04:25.884Z,978.78
2023-01-10T10:05:26.647Z,978.84
2023-01-10T10:06:26.044Z,978.84
2023-01-10T10:07:25.994Z,978.85
2023-01-10T10:08:25.987Z,978.82
2023-01-10T10:09:26.045Z,978.87
2023-01-10T10:10:26.084Z,978.94
2023-01-10T10:11:26.205Z,978.88
2023-01-10T10:12:27.078Z,978.81
2023-01-10T10:13:27.903Z,978.83
2023-01-10T10:14:26.306Z,978.90
2023-01-10T10:15:26.371Z,978.83
2023-01-10T10:16:26.481Z,978.81
2023-01-10T10:17:26.424Z,978.86
2023-01-10T10:18:27.149Z,978.83
2023-01-10T10:19:26.525Z,978.75
2023-01-10T10:20:26.600Z,978.80
2023-01-10T10:21:26.606Z,978.82
2023-01-10T10:22:26.652Z,978.79
2023-01-10T10:23:26.717Z,978.77
2023-01-10T10:24:26.857Z,978.77
2023-01-10T10:25:27.620Z,978.76
2023-01-10T10:26:26.803Z,978.77
2023-01-10T10:27:26.889Z,978.79
2023-01-10T10:28:26.997Z,978.79
2023-01-10T10:29:26.956Z,978.83
2023-01-10T10:30:27.008Z,978.79
2023-01-10T10:31:27.054Z,978.82
2023-01-10T10:32:27.107Z,978.80
2023-01-10T10:33:27.188Z,978.78
2023-01-10T10:34:27.253Z,978.80
2023-01-10T10:35:27.261Z,978.83
2023-01-10T10:36:27.265Z,978.86
2023-01-10T10:37:27.311Z,978.81
2023-01-10T10:38:27.359Z,978.83
2023-01-10T10:39:27.380Z,978.81
2023-01-10T10:40:27.495Z,978.89
2023-01-10T10:41:27.569Z,978.86
2023-01-10T10:42:27.536Z,978.80
2023-01-10T10:43:27.577Z,978.80
2023-01-10T10:44:27.617Z,978.89
2023-01-10T10:45:27.715Z,978.77
2023-01-10T10:46:27.755Z,978.79
2023-01-10T10:47:27.717Z,978.71
2023-01-10T10:48:27.759Z,978.81
2023-01-10T10:49:27.824Z,978.69
2023-01-10T10:50:27.860Z,978.73
2023-01-10T10:51:27.920Z,978.74
2023-01-10T10:52:27.945Z,978.65
2023-01-10T10:53:27.985Z,978.64
2023-01-10T10:54:28.033Z,978.65
2023-01-10T10:55:28.112Z,978.65
2023-01-10T10:56:29.094Z,978.62
2023-01-10T10:57:28.184Z,978.67
2023-01-10T10:58:28.243Z,978.59
2023-01-10T10:59:28.271Z,978.60
2023-01-10T11:00:28.364Z,978.56
2023-01-10T11:01:28.499Z,978.61
2023-01-10T11:02:29.113Z,978.59
2023-01-10T11:03:28.556Z,978.64
2023-01-10T11:04:28.541Z,978.62
2023-01-10T11:05:28.604Z,978.61
2023-01-10T11:06:28.638Z,978.59
2023-01-10T11:07:28.677Z,978.58
2023-01-10T11:08:28.748Z,978.60
2023-01-10T11:09:28.769Z,978.57
2023-01-10T11:10:28.806Z,978.64
2023-01-10T11:11:28.827Z,978.59
2023-01-10T11:12:28.930Z,978.57
2023-01-10T11:13:28.939Z,978.59
2023-01-10T11:14:29.074Z,978.62
2023-01-10T11:15:29.053Z,978.56
2023-01-10T11:16:29.151Z,978.55
2023-01-10T11:17:29.156Z,978.56
2023-01-10T11:18:29.157Z,978.53
2023-01-10T11:19:29.196Z,978.56
2023-01-10T11:20:30.090Z,978.53
2023-01-10T11:21:29.294Z,978.55
2023-01-10T11:22:29.421Z,978.52
2023-01-10T11:23:29.408Z,978.56
2023-01-10T11:24:29.514Z,978.55
2023-01-10T11:25:29.563Z,978.57
2023-01-10T11:26:29.630Z,978.63
2023-01-10T11:27:29.624Z,978.63
2023-01-10T11:28:29.662Z,978.67
2023-01-10T11:29:29.693Z,978.64
2023-01-10T11:30:29.781Z,978.65
2023-01-10T11:31:29.785Z,978.62
2023-01-10T11:32:30.605Z,978.66
2023-01-10T11:33:29.869Z,978.61
2023-01-10T11:34:30.001Z,978.70
2023-01-10T11:35:29.982Z,978.60
2023-01-10T11:36:30.042Z,978.58
2023-01-10T11:37:30.060Z,978.63
2023-01-10T11:38:30.273Z,978.63
2023-01-10T11:39:30.150Z,978.65
2023-01-10T11:40:30.175Z,978.63
2023-01-10T11:41:30.249Z,978.64
2023-01-10T11:42:30.326Z,978.57
2023-01-10T11:43:30.410Z,978.56
2023-01-10T11:44:31.115Z,978.58
2023-01-10T11:45:30.375Z,978.58
2023-01-10T11:46:30.435Z,978.59
2023-01-10T11:47:32.352Z,978.58
2023-01-10T11:48:59.678Z,978.56
2023-01-10T11:49:30.602Z,978.57
2023-01-10T11:50:33.783Z,978.63
2023-01-10T11:51:30.657Z,978.60
2023-01-10T11:52:30.699Z,978.60
2023-01-10T11:53:30.757Z,978.56
2023-01-10T11:54:30.842Z,978.58
2023-01-10T11:55:30.847Z,978.57
2023-01-10T11:56:30.879Z,978.53
2023-01-10T11:57:30.964Z,978.58
2023-01-10T11:58:30.968Z,978.53
2023-01-10T11:59:31.022Z,978.56
2023-01-10T12:00:31.062Z,978.55
2023-01-10T12:01:32.131Z,978.50
2023-01-10T12:02:31.235Z,978.51
2023-01-10T12:03:31.191Z,978.52
2023-01-10T12:04:31.245Z,978.54
2023-01-10T12:05:31.368Z,978.51
2023-01-10T12:06:31.337Z,978.49
2023-01-10T12:07:31.421Z,978.47
2023-01-10T12:08:31.434Z,978.45
2023-01-10T12:09:31.519Z,978.46
2023-01-10T12:10:31.562Z,978.43
2023-01-10T12:11:31.605Z,978.46
2023-01-10T12:12:31.748Z,978.48
2023-01-10T12:13:31.687Z,978.48
2023-01-10T12:14:31.774Z,978.50
2023-01-10T12:15:31.819Z,978.47
2023-01-10T12:16:31.874Z,978.44
2023-01-10T12:17:31.842Z,978.43
2023-01-10T12:18:31.935Z,978.37
2023-01-10T12:19:31.962Z,978.44
2023-01-10T12:20:32.649Z,978.39
2023-01-10T12:21:32.070Z,978.40
2023-01-10T12:22:32.099Z,978.37
2023-01-10T12:23:32.224Z,978.41
2023-01-10T12:24:32.185Z,978.38
2023-01-10T12:25:32.248Z,978.37
2023-01-10T12:26:32.296Z,978.38
2023-01-10T12:27:32.338Z,978.38
2023-01-10T12:28:32.405Z,978.37